AirNav   Everest Fuels
 
 1001 users online  

ND35 Lindemann Airport
Lucca, North Dakota, USA

GOING TO LUCCA?


FAA INFORMATION EFFECTIVE 03 NOVEMBER 2022

Location

FAA Identifier: ND35
Lat/Long: 46-41-59.9100N 097-42-01.3670W
46-41.998500N 097-42.022783W
46.6999750,-97.7003797
(estimated)
Elevation: 1199 ft. / 365 m (estimated)
Variation: 07E (1985)
From city: 1 mile SE of LUCCA, ND
Time zone: UTC -6 (UTC -5 during Daylight Saving Time)
Zip code: 58027

Airport Operations

Airport use: Private use. Permission required prior to landing
Activation date: 07/1948
Control tower: no
ARTCC: MINNEAPOLIS CENTER
FSS: GRAND FORKS FLIGHT SERVICE STATION
Attendance: UNATNDD
Wind indicator: yes
Segmented circle: no

Airport Communications

WX AWOS-3 at BAC (19 nm NW): 118.725 (701-845-9117)

Nearby radio navigation aids

VOR radial/distance  VOR name  Freq  Var
FARr256/35.1FARGO VOR/DME116.2009E

Airport Services

Airframe service: NONE
Powerplant service: NONE

Runway Information

Runway NW/SE

Dimensions: 1800 x 100 ft. / 549 x 30 m
Surface: turf
RUNWAY NW  RUNWAY SE
Traffic pattern: leftleft
Obstructions: none
SE END OF RWY HAS OPENING THRU SHELTERBELT.
pline, 660 ft. from runway

Airport Ownership and Management from official FAA records

Ownership: Privately-owned
Owner: LARRY LINDEMANN
BOX 96
VALLEY CITY, ND 58072
Phone 701-924-8300

Airport Operational Statistics

Aircraft based on the field: 1
Single engine airplanes: 1
    

Additional Remarks

FOR CD CTC MINNEAPOLIS ARTCC AT 651-463-5588.

Instrument Procedures

There are no published instrument procedures at ND35.

Some nearby airports with instrument procedures:

6L3 - Lisbon Municipal Airport (15 nm S)
KBAC - Barnes County Municipal Airport (19 nm NW)
5N8 - Casselton Robert Miller Regional Airport (22 nm NE)
KGWR - Gwinner Airport-Roger Melroe Field (29 nm S)
K74 - Robert Odegaard Field Airport (29 nm E)
 
Loc | Ops | Rwys | IFR | FBO | Links
Com | Nav | Svcs | Stats | Notes

Bismarck Aero Center
AirBoss

 
Area around ND35 (Lindemann Airport)
 
Road maps at: MapQuest Bing Google
 
Aerial photo
No photo
 
Sectional chart

 
Airport distance calculator
Flying to Lindemann Airport? Find the distance to fly.

From to ND35

Sunrise and sunset
Times for 26-Nov-2022
 Local
(UTC-6)
 Zulu
(UTC)
Morning civil twilight07:1613:16
Sunrise07:5013:50
Sunset16:4722:47
Evening civil twilight17:2123:21

Current date and time
Zulu (UTC)  26-Nov-2022 16:17:15
Local (UTC-6)  26-Nov-2022 10:17:15
 
METAR
KBAC 
19nm NW 
261535Z AUTO 33014KT 10SM -SN CLR 03/01 A2972 RMK AO2
KGWR 
29nm S 
261535Z AUTO 21005KT 10SM CLR 01/01 A2971 RMK A01
K2D5 
35nm SW 
261535Z AUTO 31008KT 10SM CLR 02/M01 A2972 RMK AO2
KFAR 
39nm E 
261553Z 27007KT 10SM CLR 02/M01 A2970 RMK AO2 SLP066 T00221011
TAF
KFAR 
39nm E 
261124Z 2612/2712 21008KT P6SM SCT250 FM261500 30008KT P6SM SCT250 FM261800 33012G20KT P6SM BKN240 FM270200 32009KT P6SM BKN220
KJMS 
42nm W 
261125Z 2612/2712 VRB06KT P6SM SCT250 FM261500 32013G24KT P6SM BKN250 FM261800 33016G29KT P6SM OVC200 FM262300 32012G20KT P6SM BKN200 FM270800 VRB06KT P6SM FEW250
NOTAMs
Click for the latest NOTAMs
NOTAMs are issued by the DoD/FAA and will open in a separate window not controlled by AirNav.

 

 
 

Would you like to see your business listed on this page?

 If your business provides an interesting product or service to pilots, flight crews, aircraft, or users of the Lindemann Airport, you should consider listing it here.  To start the listing process, click on the button below
 
Add a business
 

Other Pages about Lindemann Airport

Update a link
 
Copyright © AirNav, LLC. All rights reserved. Privacy Policy  Contact